Time;durP1;ratioP1;P1;durP2;ratioP2;P2;SDS_P1;SDS_P2;PMS_P1;PMS_P2;Temp;Humidity;BMP_temperature;BMP_pressure;BME280_temperature;BME280_humidity;BME280_pressure;Samples;Min_cycle;Max_cycle;Signal;HPM_P1;HPM_P2
2022/04/02 00:01:50;;;;;;;294.02;268.48;;;;;;;17.95;30.06;92060.66;5032022;28;20060;-68
2022/04/02 00:04:16;;;;;;;281.05;256.10;;;;;;;17.95;30.04;92066.06;5042510;28;20743;-68
2022/04/02 00:06:41;;;;;;;286.65;261.40;;;;;;;17.96;30.05;92067.53;5026039;28;20056;-68
2022/04/02 00:09:07;;;;;;;290.25;264.90;;;;;;;17.95;30.17;92064.09;5025776;28;20037;-68
2022/04/02 00:11:32;;;;;;;287.27;262.00;;;;;;;17.96;29.74;92062.84;5027089;28;20049;-68
2022/04/02 00:13:58;;;;;;;296.38;270.48;;;;;;;17.96;29.99;92060.16;5026874;28;20107;-68
2022/04/02 00:16:24;;;;;;;286.52;260.98;;;;;;;17.96;29.87;92056.72;5025391;28;20033;-68
2022/04/02 00:18:50;;;;;;;292.42;267.13;;;;;;;17.94;29.83;92065.31;5027532;28;20049;-68
2022/04/02 00:21:17;;;;;;;303.33;277.15;;;;;;;17.94;29.80;92054.50;5026859;28;20053;-68
2022/04/02 00:23:46;;;;;;;299.60;273.05;;;;;;;17.95;29.93;92057.94;5025709;28;20053;-68
2022/04/02 00:26:19;;;;;;;304.17;277.80;;;;;;;17.93;29.95;92052.31;5025957;28;20095;-68
2022/04/02 00:28:45;;;;;;;293.85;268.00;;;;;;;17.95;29.80;92060.66;5021861;28;20703;-67
2022/04/02 00:31:13;;;;;;;288.15;262.83;;;;;;;17.93;30.00;92055.75;5018779;28;20101;-68
2022/04/02 00:33:40;;;;;;;303.38;276.75;;;;;;;17.93;29.75;92057.72;5024054;28;20564;-68
2022/04/02 00:36:06;;;;;;;301.45;275.15;;;;;;;17.93;29.99;92061.16;5023629;28;20050;-68
2022/04/02 00:38:32;;;;;;;294.48;268.67;;;;;;;17.91;30.21;92049.38;5026212;28;20094;-67
2022/04/02 00:40:58;;;;;;;305.08;278.90;;;;;;;17.92;30.08;92051.56;5026435;28;20041;-68
2022/04/02 00:43:32;;;;;;;291.45;265.65;;;;;;;17.91;30.09;92047.41;5026543;28;20521;-68
2022/04/02 00:46:01;;;;;;;291.65;265.77;;;;;;;17.90;29.90;92043.22;5024641;28;20502;-68
2022/04/02 00:48:27;;;;;;;298.10;271.90;;;;;;;17.89;29.91;92049.88;5024372;28;20099;-68
2022/04/02 00:50:55;;;;;;;295.13;268.73;;;;;;;17.89;30.03;92047.16;5018211;28;20053;-68
2022/04/02 00:53:28;;;;;;;289.35;263.65;;;;;;;17.88;30.16;92044.94;5027259;28;20099;-68
2022/04/02 00:55:53;;;;;;;281.92;256.73;;;;;;;17.88;30.17;92053.06;5030812;28;20045;-67
2022/04/02 00:58:19;;;;;;;281.95;256.65;;;;;;;17.86;30.15;92050.88;5026227;28;20049;-68
2022/04/02 01:00:44;;;;;;;289.55;263.77;;;;;;;17.86;30.00;92048.16;5024661;28;20057;-67
2022/04/02 01:03:11;;;;;;;288.98;263.27;;;;;;;17.84;30.09;92047.91;5025741;28;20104;-68
2022/04/02 01:05:38;;;;;;;285.90;260.88;;;;;;;17.84;30.00;92050.63;5020862;28;20073;-68
2022/04/02 01:08:05;;;;;;;280.38;255.73;;;;;;;17.83;30.10;92045.72;5023763;28;20081;-68
2022/04/02 01:10:32;;;;;;;287.50;262.05;;;;;;;17.82;29.97;92050.38;5025603;28;20045;-68
2022/04/02 01:12:58;;;;;;;280.02;255.05;;;;;;;17.83;30.14;92051.84;5023381;28;20049;-68
2022/04/02 01:15:24;;;;;;;287.50;261.88;;;;;;;17.82;30.11;92053.09;5024485;28;20196;-67
2022/04/02 01:17:49;;;;;;;283.88;258.67;;;;;;;17.81;29.95;92046.22;5026521;28;20211;-68
2022/04/02 01:20:16;;;;;;;288.00;262.80;;;;;;;17.81;30.00;92053.59;5021497;28;20490;-68
2022/04/02 01:22:59;;;;;;;280.42;255.35;;;;;;;17.81;30.10;92061.72;5018619;28;20061;-68
2022/04/02 01:25:31;;;;;;;280.50;255.63;;;;;;;17.81;30.13;92059.00;5029505;28;20046;-68
2022/04/02 01:27:58;;;;;;;274.45;249.52;;;;;;;17.81;30.02;92064.41;5046254;28;20053;-67
2022/04/02 01:30:24;;;;;;;284.95;259.67;;;;;;;17.80;30.06;92060.97;5024718;28;20072;-69
2022/04/02 01:32:49;;;;;;;285.40;260.38;;;;;;;17.81;29.98;92053.59;5025899;28;20053;-69
2022/04/02 01:35:15;;;;;;;288.83;263.58;;;;;;;17.80;29.99;92065.63;5025082;28;20842;-67
2022/04/02 01:37:40;;;;;;;288.15;262.70;;;;;;;17.78;29.96;92068.84;5026361;28;20557;-67
2022/04/02 01:40:07;;;;;;;285.83;260.85;;;;;;;17.81;29.95;92070.56;5018847;28;20133;-67
2022/04/02 01:42:32;;;;;;;281.15;256.20;;;;;;;17.80;29.98;92079.16;5022983;28;20049;-67
2022/04/02 01:44:58;;;;;;;276.30;251.70;;;;;;;17.82;30.03;92079.41;5025875;28;20050;-67
2022/04/02 01:47:24;;;;;;;280.13;254.60;;;;;;;17.81;30.02;92069.81;5025749;28;20107;-67
2022/04/02 01:49:50;;;;;;;285.38;260.35;;;;;;;17.79;29.89;92067.59;5020911;28;20034;-67
2022/04/02 01:52:18;;;;;;;280.80;256.02;;;;;;;17.80;30.04;92073.75;5024333;28;20443;-67
2022/04/02 01:54:45;;;;;;;299.73;272.80;;;;;;;17.81;29.93;92073.25;5014223;28;20120;-67
2022/04/02 01:57:10;;;;;;;281.55;256.17;;;;;;;17.80;29.88;92062.94;5023122;28;20034;-67
2022/04/02 01:59:37;;;;;;;278.75;253.65;;;;;;;17.78;30.18;92072.28;5025669;28;20525;-67
2022/04/02 02:02:03;;;;;;;278.60;253.57;;;;;;;17.78;30.02;92066.88;5025075;28;20808;-67
2022/04/02 02:04:28;;;;;;;277.77;252.77;;;;;;;17.79;29.99;92081.13;5025596;28;20056;-68
2022/04/02 02:06:54;;;;;;;286.15;260.83;;;;;;;17.77;30.02;92076.22;5024565;28;20077;-67
2022/04/02 02:09:20;;;;;;;285.23;259.90;;;;;;;17.77;29.79;92076.22;5025879;28;20403;-67
2022/04/02 02:11:48;;;;;;;288.55;263.25;;;;;;;17.78;29.90;92071.53;5022189;28;20054;-67
2022/04/02 02:14:13;;;;;;;276.98;252.05;;;;;;;17.76;29.86;92072.03;5026219;28;20054;-67
2022/04/02 02:16:40;;;;;;;276.55;251.65;;;;;;;17.75;30.07;92073.28;5027305;28;20592;-68
2022/04/02 02:19:05;;;;;;;275.92;251.05;;;;;;;17.75;30.02;92075.97;5026025;28;20049;-68
2022/04/02 02:21:31;;;;;;;284.67;259.15;;;;;;;17.75;29.97;92075.97;5020449;28;20080;-67
2022/04/02 02:24:06;;;;;;;285.70;260.67;;;;;;;17.74;29.77;92076.47;5026716;28;20079;-67
2022/04/02 02:26:32;;;;;;;284.33;258.95;;;;;;;17.74;30.06;92071.06;5025775;28;20128;-68
2022/04/02 02:29:04;;;;;;;278.65;254.02;;;;;;;17.74;29.99;92076.47;5021080;28;20053;-68
2022/04/02 02:31:31;;;;;;;283.02;257.95;;;;;;;17.73;29.74;92073.03;5018031;28;20414;-67
2022/04/02 02:36:41;;;;;;;286.20;260.67;;;;;;;17.73;29.80;92064.94;5033024;28;20038;-67
2022/04/02 02:39:07;;;;;;;277.95;252.57;;;;;;;17.74;29.84;92071.06;5028241;28;20128;-67
2022/04/02 02:41:32;;;;;;;283.35;258.08;;;;;;;17.73;29.84;92062.22;5029864;28;20060;-67
2022/04/02 02:43:58;;;;;;;276.23;251.52;;;;;;;17.72;29.97;92065.44;5029228;28;20053;-67
2022/04/02 02:46:23;;;;;;;278.00;253.23;;;;;;;17.70;29.69;92060.53;5030276;28;20574;-67
2022/04/02 02:48:52;;;;;;;279.10;253.68;;;;;;;17.68;29.97;92057.59;5015474;28;20053;-67
2022/04/02 02:51:18;;;;;;;279.63;254.63;;;;;;;17.68;29.73;92057.59;5016729;28;20057;-67
2022/04/02 02:53:46;;;;;;;283.17;257.88;;;;;;;17.68;29.83;92059.56;5028528;28;20095;-67
2022/04/02 02:56:11;;;;;;;281.20;256.00;;;;;;;17.68;29.68;92064.97;5026166;28;20078;-67
2022/04/02 02:58:37;;;;;;;280.70;255.60;;;;;;;17.66;29.86;92067.41;5028591;28;20053;-67
2022/04/02 03:01:04;;;;;;;272.92;248.13;;;;;;;17.65;30.10;92071.31;5028177;28;20053;-67
2022/04/02 03:03:31;;;;;;;285.15;259.73;;;;;;;17.65;29.84;92069.38;5027081;28;20141;-67
2022/04/02 03:05:57;;;;;;;278.95;254.00;;;;;;;17.64;30.25;92067.16;5028033;28;20072;-67
2022/04/02 03:08:22;;;;;;;273.92;249.07;;;;;;;17.66;29.93;92067.41;5028552;28;20057;-67
2022/04/02 03:10:48;;;;;;;279.23;253.95;;;;;;;17.66;30.19;92067.41;5029071;28;20355;-67
2022/04/02 03:13:14;;;;;;;275.60;250.70;;;;;;;17.65;29.99;92072.09;5028655;28;20164;-67
2022/04/02 03:15:40;;;;;;;272.20;247.68;;;;;;;17.65;30.01;92076.72;5028051;28;20141;-67
2022/04/02 03:18:08;;;;;;;289.70;264.23;;;;;;;17.66;30.04;92070.84;5027054;28;20046;-67
2022/04/02 03:20:35;;;;;;;271.75;246.98;;;;;;;17.67;29.99;92071.59;5025071;28;20045;-67
2022/04/02 03:23:05;;;;;;;301.27;274.35;;;;;;;17.67;30.10;92072.34;5025795;28;20103;-67
2022/04/02 03:25:31;;;;;;;281.95;256.85;;;;;;;17.70;30.09;92067.91;5026523;28;20095;-67
2022/04/02 03:27:57;;;;;;;277.48;252.55;;;;;;;17.70;29.94;92068.63;5027219;28;20037;-67
2022/04/02 03:30:24;;;;;;;285.58;260.40;;;;;;;17.71;30.04;92069.38;5027617;28;20077;-67
2022/04/02 03:32:52;;;;;;;292.38;266.10;;;;;;;17.73;29.90;92075.00;5028201;28;20494;-67
2022/04/02 03:35:26;;;;;;;270.60;245.93;;;;;;;17.74;29.91;92076.47;5028377;28;20046;-67
2022/04/02 03:37:53;;;;;;;292.27;266.48;;;;;;;17.75;29.95;92077.94;5022630;28;20053;-67
2022/04/02 03:40:22;;;;;;;276.00;251.13;;;;;;;17.76;29.83;92074.00;5025366;28;20053;-67
2022/04/02 03:42:48;;;;;;;266.95;242.88;;;;;;;17.78;29.88;92072.28;5021132;28;20052;-67
2022/04/02 03:45:16;;;;;;;276.50;251.63;;;;;;;17.78;29.88;92075.00;5027522;28;20129;-68
2022/04/02 03:47:43;;;;;;;291.58;265.90;;;;;;;17.77;29.79;92073.50;5027578;28;20095;-67
2022/04/02 03:50:09;;;;;;;281.98;256.98;;;;;;;17.78;29.76;92072.28;5028149;28;20126;-67
2022/04/02 03:52:35;;;;;;;281.00;256.10;;;;;;;17.79;29.69;92075.72;5026178;28;20049;-67
2022/04/02 03:55:01;;;;;;;286.58;261.30;;;;;;;17.80;29.78;92076.47;5026504;28;20112;-67
2022/04/02 03:57:26;;;;;;;286.73;261.67;;;;;;;17.79;29.86;92075.72;5026882;28;20420;-67
2022/04/02 03:59:52;;;;;;;276.10;251.15;;;;;;;17.82;29.78;92077.44;5027186;28;20046;-67
2022/04/02 04:02:17;;;;;;;287.65;262.45;;;;;;;17.84;30.02;92083.06;5024907;28;20067;-67
2022/04/02 04:04:43;;;;;;;296.73;270.13;;;;;;;17.85;30.09;92081.09;5026609;28;20457;-68
2022/04/02 04:07:09;;;;;;;279.20;254.52;;;;;;;17.89;29.82;92078.88;5027730;28;20061;-68
2022/04/02 04:09:40;;;;;;;286.35;260.85;;;;;;;17.91;30.06;92085.25;5025691;28;20061;-68
2022/04/02 04:12:07;;;;;;;293.38;268.08;;;;;;;17.93;29.86;92080.09;5026807;28;20394;-68
2022/04/02 04:14:33;;;;;;;299.85;273.98;;;;;;;17.96;29.75;92089.91;5026466;28;20045;-68
2022/04/02 04:16:58;;;;;;;304.48;277.67;;;;;;;17.96;29.73;92084.50;5025008;28;20406;-68
2022/04/02 04:19:23;;;;;;;302.77;277.25;;;;;;;18.01;29.90;92093.81;5025851;28;20052;-68
2022/04/02 04:21:49;;;;;;;290.70;265.80;;;;;;;18.01;29.87;92088.41;5018551;28;20072;-68
2022/04/02 04:24:15;;;;;;;283.40;259.05;;;;;;;18.03;29.79;92085.94;5026851;28;20371;-68
2022/04/02 04:26:42;;;;;;;295.00;269.80;;;;;;;18.07;29.83;92089.84;5029277;28;20037;-68
2022/04/02 04:29:08;;;;;;;295.92;270.65;;;;;;;18.08;29.95;92079.75;5027856;28;20148;-68
2022/04/02 04:31:34;;;;;;;291.00;266.02;;;;;;;18.11;29.64;92092.28;5023669;28;20435;-68
2022/04/02 04:34:00;;;;;;;298.52;273.50;;;;;;;18.13;29.75;92091.78;5026432;28;20091;-68
2022/04/02 04:36:27;;;;;;;304.52;278.77;;;;;;;18.16;29.83;92096.19;5024310;28;20042;-68
2022/04/02 04:38:52;;;;;;;308.25;282.95;;;;;;;18.18;29.64;92093.72;5027339;28;20121;-68
2022/04/02 04:41:18;;;;;;;300.25;275.10;;;;;;;18.20;29.46;92097.38;5026044;28;20584;-68
2022/04/02 04:43:48;;;;;;;291.13;265.98;;;;;;;18.21;29.63;92104.25;5040976;28;20041;-68
2022/04/02 04:46:14;;;;;;;302.67;277.07;;;;;;;18.23;29.71;92103.75;5024218;28;20045;-67
2022/04/02 04:48:40;;;;;;;308.35;283.02;;;;;;;18.24;29.46;92107.94;5026585;28;20122;-68
2022/04/02 04:51:06;;;;;;;299.48;274.50;;;;;;;18.24;29.44;92105.97;5025750;28;20049;-68
2022/04/02 04:53:32;;;;;;;313.88;287.05;;;;;;;18.25;29.59;92109.41;5025479;28;20107;-68
2022/04/02 04:55:58;;;;;;;305.50;279.80;;;;;;;18.24;29.58;92105.97;5029471;28;20041;-68
2022/04/02 04:58:23;;;;;;;296.00;271.00;;;;;;;18.25;29.37;92109.41;5021443;28;20128;-68
2022/04/02 05:00:49;;;;;;;309.35;283.73;;;;;;;18.27;29.40;92113.06;5017446;28;20506;-68
2022/04/02 05:03:18;;;;;;;307.38;281.88;;;;;;;18.28;29.55;92113.81;5026143;28;20044;-68
2022/04/02 05:05:44;;;;;;;299.13;274.13;;;;;;;18.29;29.54;92104.47;5025280;28;20056;-68
2022/04/02 05:08:09;;;;;;;311.52;285.80;;;;;;;18.29;29.62;92115.28;5025561;28;20493;-68
2022/04/02 05:10:38;;;;;;;299.48;274.73;;;;;;;18.27;29.50;92115.06;5025455;28;20045;-68
2022/04/02 05:13:04;;;;;;;305.60;280.40;;;;;;;18.26;29.40;92125.13;5024948;28;20060;-68
2022/04/02 05:15:30;;;;;;;293.80;268.75;;;;;;;18.26;29.40;92121.69;5023764;28;20437;-68
2022/04/02 05:17:56;;;;;;;310.70;284.85;;;;;;;18.24;29.49;92119.50;5017357;28;20100;-68
2022/04/02 05:20:22;;;;;;;310.10;283.83;;;;;;;18.23;29.47;92120.00;5018631;28;20069;-68
2022/04/02 05:22:48;;;;;;;302.88;277.60;;;;;;;18.22;29.47;92129.34;5020842;28;20360;-68
2022/04/02 05:25:16;;;;;;;294.33;269.25;;;;;;;18.23;29.37;92134.25;5022492;28;20052;-69
2022/04/02 05:27:42;;;;;;;298.42;273.02;;;;;;;18.22;29.35;92134.75;5023666;28;20138;-69
2022/04/02 05:30:08;;;;;;;297.27;272.02;;;;;;;18.23;29.41;92133.53;5023050;28;20041;-68
2022/04/02 05:32:33;;;;;;;299.05;273.70;;;;;;;18.22;29.45;92138.19;5022752;28;20497;-68
2022/04/02 05:34:59;;;;;;;300.08;274.75;;;;;;;18.24;29.54;92140.41;5026716;28;20059;-68
2022/04/02 05:37:25;;;;;;;294.58;269.58;;;;;;;18.27;29.38;92139.41;5020567;28;20122;-69
2022/04/02 05:39:51;;;;;;;301.48;275.60;;;;;;;18.25;29.62;92136.47;5022348;28;20494;-68
2022/04/02 05:42:17;;;;;;;301.92;276.40;;;;;;;18.25;29.26;92141.88;5020771;28;20053;-69
2022/04/02 05:44:43;;;;;;;327.70;299.10;;;;;;;18.25;29.37;92145.31;5024589;28;20061;-68
2022/04/02 05:47:09;;;;;;;313.80;287.23;;;;;;;18.25;29.51;92139.16;5019600;28;20065;-69
2022/04/02 05:49:36;;;;;;;298.67;273.38;;;;;;;18.24;29.34;92140.41;5016870;28;20064;-69
2022/04/02 05:52:03;;;;;;;291.20;266.15;;;;;;;18.21;29.35;92144.84;5028555;28;20117;-69
2022/04/02 05:54:29;;;;;;;298.35;273.17;;;;;;;18.22;29.45;92153.69;5025297;28;20060;-68
2022/04/02 05:56:55;;;;;;;304.40;278.88;;;;;;;18.22;29.40;92151.00;5018012;28;20050;-68
2022/04/02 05:59:21;;;;;;;306.08;280.70;;;;;;;18.20;29.33;92151.50;5022557;28;20064;-69
2022/04/02 06:01:48;;;;;;;294.70;269.83;;;;;;;18.19;29.42;92154.72;5028920;28;20045;-71
2022/04/02 06:04:14;;;;;;;295.15;269.88;;;;;;;18.18;29.26;92162.09;5026772;28;20129;-69
2022/04/02 06:06:40;;;;;;;293.90;269.10;;;;;;;18.17;29.47;92166.03;5027881;28;20045;-71
2022/04/02 06:09:06;;;;;;;309.77;283.50;;;;;;;18.16;29.38;92172.69;5026639;28;20095;-70
2022/04/02 06:11:32;;;;;;;304.15;278.75;;;;;;;18.16;29.40;92175.38;5027523;28;20344;-69
2022/04/02 06:13:59;;;;;;;299.73;273.88;;;;;;;18.16;29.31;92174.66;5030911;28;20053;-69
2022/04/02 06:16:25;;;;;;;288.63;263.77;;;;;;;18.17;29.37;92174.16;5028183;28;20494;-69
2022/04/02 06:18:52;;;;;;;294.85;269.90;;;;;;;18.18;29.29;92174.88;5025944;28;20114;-68
2022/04/02 06:21:18;;;;;;;297.80;272.40;;;;;;;18.14;29.31;92179.81;5026540;28;20223;-68
2022/04/02 06:23:44;;;;;;;302.98;277.50;;;;;;;18.14;29.48;92175.16;5023860;28;20053;-70
2022/04/02 06:26:10;;;;;;;294.48;269.42;;;;;;;18.14;29.19;92183.28;5021954;28;20156;-70
2022/04/02 06:28:37;;;;;;;294.40;269.40;;;;;;;18.14;29.15;92185.97;5025860;28;20575;-67
2022/04/02 06:31:08;;;;;;;289.30;264.33;;;;;;;18.15;29.34;92184.75;5026692;28;20042;-69
2022/04/02 06:33:33;;;;;;;301.83;276.17;;;;;;;18.15;29.37;92189.41;5027464;28;20058;-66
2022/04/02 06:36:00;;;;;;;307.58;281.30;;;;;;;18.16;29.50;92188.91;5014972;28;20388;-68
2022/04/02 06:38:26;;;;;;;317.33;289.55;;;;;;;18.17;29.22;92195.06;4996816;28;20056;-68
2022/04/02 06:40:53;;;;;;;322.42;294.58;;;;;;;18.19;29.29;92193.34;5000569;28;20046;-68
2022/04/02 06:43:19;;;;;;;317.67;289.88;;;;;;;18.18;29.32;92194.56;4998909;28;20048;-68
2022/04/02 06:45:45;;;;;;;311.20;283.88;;;;;;;18.19;29.41;92206.13;4997835;28;20132;-67
2022/04/02 06:48:11;;;;;;;319.25;290.75;;;;;;;18.19;29.45;92206.13;4998313;28;20045;-68
2022/04/02 06:50:37;;;;;;;313.63;286.02;;;;;;;18.20;29.33;92199.47;4995177;28;20050;-69
2022/04/02 06:53:03;;;;;;;329.67;300.15;;;;;;;18.19;29.23;92206.84;4992878;28;20065;-68
2022/04/02 06:55:28;;;;;;;311.20;283.55;;;;;;;18.19;29.29;92206.13;4995116;28;20748;-69
2022/04/02 06:57:56;;;;;;;318.33;290.20;;;;;;;18.17;29.28;92212.03;5000227;28;20152;-68
2022/04/02 07:00:23;;;;;;;318.30;290.67;;;;;;;18.14;29.17;92207.63;4996167;28;20037;-68
2022/04/02 07:02:49;;;;;;;319.45;291.27;;;;;;;18.15;29.12;92217.19;4997572;28;20149;-69
2022/04/02 07:05:16;;;;;;;329.85;301.42;;;;;;;18.15;29.31;92221.88;4997155;28;20663;-69
2022/04/02 07:07:42;;;;;;;318.02;290.15;;;;;;;18.14;29.27;92221.16;4997132;28;20045;-68
2022/04/02 07:10:08;;;;;;;335.52;305.50;;;;;;;18.13;29.21;92232.47;4996572;28;20073;-69
2022/04/02 07:12:35;;;;;;;320.20;292.33;;;;;;;18.13;29.13;92227.06;4998749;28;20049;-69
2022/04/02 07:15:02;;;;;;;320.00;292.02;;;;;;;18.14;29.19;92231.97;4995407;28;20211;-69
2022/04/02 07:17:27;;;;;;;311.55;284.52;;;;;;;18.13;29.31;92238.59;4996046;28;20065;-70
2022/04/02 07:19:58;;;;;;;319.38;290.98;;;;;;;18.13;29.31;92237.88;5005369;28;20058;-70
2022/04/02 07:22:24;;;;;;;308.80;281.13;;;;;;;18.13;29.00;92235.16;4997740;28;20152;-68
2022/04/02 07:24:54;;;;;;;326.05;297.20;;;;;;;18.13;29.19;92238.59;4996555;28;20061;-69
2022/04/02 07:27:23;;;;;;;309.40;282.42;;;;;;;18.10;29.13;92248.44;4996335;28;20045;-69
2022/04/02 07:29:57;;;;;;;321.67;293.52;;;;;;;18.10;29.03;92255.84;4996772;28;20052;-69
2022/04/02 07:32:23;;;;;;;316.50;288.50;;;;;;;18.08;29.37;92259.03;4996404;28;20148;-68
2022/04/02 07:34:49;;;;;;;302.02;276.05;;;;;;;18.08;29.15;92259.03;5000650;28;20042;-69
2022/04/02 07:37:30;;;;;;;305.45;279.05;;;;;;;18.09;29.16;92268.63;5018630;28;20057;-69
2022/04/02 07:40:18;;;;;;;304.40;278.73;;;;;;;18.07;29.18;92265.69;5024097;28;20511;-67
2022/04/02 07:42:59;;;;;;;296.10;271.00;;;;;;;18.07;29.18;92271.09;5026517;28;20708;-69
2022/04/02 07:45:32;;;;;;;302.30;276.48;;;;;;;18.05;29.19;92272.81;5021101;28;20049;-69
2022/04/02 07:47:58;;;;;;;300.10;274.75;;;;;;;18.03;28.90;92277.97;5024698;28;20052;-69
2022/04/02 07:50:26;;;;;;;296.98;271.65;;;;;;;18.01;29.19;92285.84;5026292;28;20065;-69
2022/04/02 07:52:54;;;;;;;298.33;272.98;;;;;;;17.96;29.10;92289.31;5013692;28;20044;-69
2022/04/02 07:55:22;;;;;;;301.90;276.55;;;;;;;17.92;29.07;92281.44;5019385;28;20037;-69
2022/04/02 07:57:51;;;;;;;304.63;278.85;;;;;;;17.92;29.06;92289.56;5024022;28;20331;-69
2022/04/02 08:00:20;;;;;;;306.70;281.02;;;;;;;17.95;28.89;92288.56;5029549;28;20057;-69
2022/04/02 08:02:47;;;;;;;296.40;271.60;;;;;;;17.97;28.95;92290.78;5034005;28;20041;-70
2022/04/02 08:05:22;;;;;;;291.40;265.85;;;;;;;17.94;28.80;92297.91;5024642;28;20048;-69
2022/04/02 08:07:52;;;;;;;289.42;264.45;;;;;;;17.91;28.89;92298.16;5022905;28;20056;-69
2022/04/02 08:10:20;;;;;;;286.67;261.40;;;;;;;17.89;28.77;92306.75;5020467;28;20069;-69
2022/04/02 08:12:46;;;;;;;295.83;270.15;;;;;;;17.90;28.92;92305.53;5023548;28;20033;-69
2022/04/02 08:15:20;;;;;;;291.25;266.15;;;;;;;17.84;28.67;92310.22;5006503;28;20117;-69
2022/04/02 08:17:53;;;;;;;304.48;278.58;;;;;;;17.83;28.64;92314.16;5027218;28;20041;-69
2022/04/02 08:20:19;;;;;;;300.40;274.90;;;;;;;17.82;28.63;92309.97;5026670;28;20080;-69
2022/04/02 08:22:45;;;;;;;285.55;260.73;;;;;;;17.84;28.69;92315.63;5023398;28;20045;-70
2022/04/02 08:25:12;;;;;;;289.80;264.45;;;;;;;17.84;28.56;92325.69;5021043;28;20044;-69
2022/04/02 08:27:57;;;;;;;302.95;277.40;;;;;;;17.82;28.69;92323.50;5024861;28;20054;-68
2022/04/02 08:30:34;;;;;;;292.73;267.48;;;;;;;17.81;28.60;92318.56;5022017;28;20513;-68
2022/04/02 08:33:23;;;;;;;293.73;268.73;;;;;;;17.82;28.45;92328.91;5025579;28;20061;-70
2022/04/02 08:35:48;;;;;;;296.95;271.63;;;;;;;17.81;28.79;92334.78;5025622;28;20428;-68
2022/04/02 08:38:26;;;;;;;299.25;273.65;;;;;;;17.82;28.70;92336.28;5024287;28;20057;-67
2022/04/02 08:41:19;;;;;;;298.27;272.67;;;;;;;17.82;28.54;92341.69;5021076;28;20107;-67
2022/04/02 08:44:00;;;;;;;307.63;281.40;;;;;;;17.85;28.57;92340.69;5022116;28;20103;-69
2022/04/02 08:46:59;;;;;;;288.25;263.17;;;;;;;17.85;28.64;92351.50;5023504;28;20033;-70
2022/04/02 08:49:41;;;;;;;284.60;259.58;;;;;;;17.86;28.63;92350.28;5020451;28;20066;-70
2022/04/02 08:52:22;;;;;;;292.60;266.90;;;;;;;17.86;28.31;92361.84;5021305;28;20409;-71
2022/04/02 08:55:03;;;;;;;306.23;279.88;;;;;;;17.84;28.57;92364.28;5027034;28;20107;-69
2022/04/02 08:57:38;;;;;;;291.30;266.17;;;;;;;17.84;28.61;92367.00;5018757;28;20049;-70
2022/04/02 09:00:15;;;;;;;304.30;278.55;;;;;;;17.85;28.56;92378.56;5024314;28;20536;-68
2022/04/02 09:02:53;;;;;;;296.13;271.05;;;;;;;17.82;28.60;92387.66;5022354;28;20722;-71
2022/04/02 09:05:37;;;;;;;296.70;271.27;;;;;;;17.84;28.50;92379.78;5026446;28;20053;-69
2022/04/02 09:08:22;;;;;;;302.80;277.05;;;;;;;17.90;28.53;92381.25;5026999;28;20050;-69
2022/04/02 09:11:15;;;;;;;298.15;272.63;;;;;;;17.87;28.39;92384.22;5024505;28;20041;-71
2022/04/02 09:14:09;;;;;;;296.02;270.48;;;;;;;17.85;28.27;92395.53;5020751;28;20034;-69
2022/04/02 09:17:00;;;;;;;291.55;266.30;;;;;;;17.86;28.18;92396.25;5016657;28;20053;-70
2022/04/02 09:19:49;;;;;;;295.48;270.13;;;;;;;17.84;28.29;92391.34;5017796;28;20092;-70
2022/04/02 09:22:33;;;;;;;289.70;264.42;;;;;;;17.80;28.22;92403.63;5020544;28;20046;-70
2022/04/02 09:24:58;;;;;;;303.58;277.88;;;;;;;17.76;28.12;92401.91;5033772;28;20045;-70
2022/04/02 09:27:45;;;;;;;295.05;269.85;;;;;;;17.79;28.21;92405.59;5025358;28;20126;-70
2022/04/02 09:30:45;;;;;;;298.83;273.00;;;;;;;17.78;28.32;92410.25;5022788;28;20041;-69
2022/04/02 09:33:32;;;;;;;307.55;281.23;;;;;;;17.77;28.23;92411.50;5023578;28;20045;-70
2022/04/02 09:36:01;;;;;;;334.77;307.73;;;;;;;17.72;28.05;92417.63;5021741;28;20045;-70
2022/04/02 09:39:05;;;;;;;293.63;268.17;;;;;;;17.74;28.17;92417.13;5019342;28;20129;-70
2022/04/02 09:41:37;;;;;;;295.75;270.13;;;;;;;17.77;28.06;92419.59;5011412;28;20617;-71
2022/04/02 09:44:35;;;;;;;349.48;320.17;;;;;;;17.75;28.17;92424.03;5007490;28;20041;-69
2022/04/02 09:47:33;;;;;;;297.35;270.70;;;;;;;17.73;27.97;92415.66;5006491;28;21260;-71
2022/04/02 09:50:09;;;;;;;302.48;276.00;;;;;;;17.72;28.16;92422.28;4986869;28;20410;-70
2022/04/02 09:52:56;;;;;;;302.38;275.20;;;;;;;17.78;28.23;92428.44;5002183;28;20288;-72
2022/04/02 09:55:25;;;;;;;307.77;280.48;;;;;;;17.69;28.28;92429.41;5000749;28;20084;-71
2022/04/02 09:58:19;;;;;;;307.95;280.90;;;;;;;17.69;28.22;92432.13;5003145;28;20053;-72
2022/04/02 10:00:52;;;;;;;308.73;281.30;;;;;;;17.70;28.18;92430.91;5005730;28;20190;-72
2022/04/02 10:03:32;;;;;;;302.80;275.75;;;;;;;17.67;28.13;92439.97;5020613;28;20107;-72
2022/04/02 10:06:19;;;;;;;316.38;288.60;;;;;;;17.69;28.18;92440.22;5009303;28;20569;-71
2022/04/02 10:09:02;;;;;;;305.13;277.90;;;;;;;17.72;27.78;92444.66;5021074;28;20042;-72
2022/04/02 10:11:29;;;;;;;309.27;281.63;;;;;;;17.72;28.12;92441.97;5007521;28;20041;-72
2022/04/02 10:14:00;;;;;;;306.35;279.65;;;;;;;17.73;28.04;92448.84;5005609;28;20073;-72
2022/04/02 10:16:27;;;;;;;303.15;276.90;;;;;;;17.68;28.14;92454.97;5006173;28;21160;-73
2022/04/02 10:18:55;;;;;;;316.70;289.23;;;;;;;17.70;28.29;92454.50;5007430;28;20528;-72
2022/04/02 10:21:21;;;;;;;309.35;281.85;;;;;;;17.71;28.04;92450.56;5004784;28;20080;-72
2022/04/02 10:24:16;;;;;;;317.88;290.40;;;;;;;17.72;28.03;92454.75;5010696;28;20084;-71
2022/04/02 10:26:56;;;;;;;307.23;280.13;;;;;;;17.72;28.05;92460.16;5006497;28;20049;-71
2022/04/02 10:29:43;;;;;;;320.90;292.58;;;;;;;17.76;28.06;92468.75;5004458;28;20050;-72
2022/04/02 10:32:15;;;;;;;328.88;300.55;;;;;;;17.71;28.13;92464.09;5007287;28;20054;-71
2022/04/02 10:34:48;;;;;;;346.30;316.30;;;;;;;17.72;27.96;92468.25;5006171;28;20045;-70
2022/04/02 10:37:18;;;;;;;333.10;304.92;;;;;;;17.76;28.12;92469.50;5009862;28;20046;-71
2022/04/02 10:39:57;;;;;;;;;;;;;;;17.75;27.94;92476.13;5001090;28;20099;-70
2022/04/02 10:42:53;;;;;;;302.10;275.38;;;;;;;17.79;28.03;92473.19;4999480;28;19929;-73
2022/04/02 10:45:20;;;;;;;301.05;275.38;;;;;;;17.77;27.91;92473.69;5012306;28;20102;-71
2022/04/02 10:47:47;;;;;;;298.98;273.15;;;;;;;17.76;28.01;92483.00;5025894;28;20148;-68
2022/04/02 10:50:17;;;;;;;300.77;274.98;;;;;;;17.74;28.02;92492.84;5025663;28;20053;-72
2022/04/02 10:52:47;;;;;;;304.63;278.35;;;;;;;17.76;27.91;92487.69;5032710;28;20060;-71
2022/04/02 10:55:18;;;;;;;297.73;271.85;;;;;;;17.78;28.01;92490.63;5038814;28;20477;-72
2022/04/02 10:57:44;;;;;;;302.45;276.38;;;;;;;17.78;27.93;92504.16;5024932;28;20145;-73
2022/04/02 11:00:11;;;;;;;297.92;272.60;;;;;;;17.74;28.16;92501.69;5028691;28;20109;-72
2022/04/02 11:02:42;;;;;;;299.10;273.73;;;;;;;17.77;28.03;92503.41;5025838;28;20513;-71
2022/04/02 11:05:10;;;;;;;291.23;266.00;;;;;;;17.78;28.14;92504.91;5024870;28;20048;-73
2022/04/02 11:07:48;;;;;;;298.92;273.02;;;;;;;17.80;28.00;92504.41;5026803;28;20046;-71
2022/04/02 11:10:16;;;;;;;300.00;274.48;;;;;;;17.78;27.96;92513.00;5027267;28;20038;-69
2022/04/02 11:12:44;;;;;;;309.40;282.95;;;;;;;17.85;28.05;92513.75;5026577;28;20111;-73
2022/04/02 11:15:20;;;;;;;297.92;272.80;;;;;;;17.84;27.93;92520.41;5023605;28;20636;-73
2022/04/02 11:17:48;;;;;;;298.38;272.95;;;;;;;17.80;27.94;92523.34;5021329;28;20038;-72